createdAt,value
2019-05-06T00:09:47.000Z,551
2019-05-06T00:30:04.000Z,551
2019-05-06T00:50:21.000Z,552
2019-05-06T01:10:38.000Z,553
2019-05-06T01:30:55.000Z,553
2019-05-06T01:51:11.000Z,553
2019-05-06T02:11:29.000Z,553
2019-05-06T02:31:46.000Z,554
2019-05-06T02:52:03.000Z,556
2019-05-06T03:12:20.000Z,555
2019-05-06T03:32:36.000Z,556
2019-05-06T03:52:53.000Z,557
2019-05-06T04:13:10.000Z,557
2019-05-06T04:33:27.000Z,558
2019-05-06T04:53:44.000Z,558
2019-05-06T05:14:01.000Z,559
2019-05-06T05:34:18.000Z,559
2019-05-06T05:54:35.000Z,558
2019-05-06T06:14:52.000Z,559
2019-05-06T06:35:09.000Z,546
2019-05-06T06:55:25.000Z,537
2019-05-06T07:15:42.000Z,541
2019-05-06T07:35:59.000Z,542
2019-05-06T07:56:16.000Z,546
2019-05-06T08:16:33.000Z,549
2019-05-06T08:36:50.000Z,554
2019-05-06T08:57:07.000Z,562
2019-05-06T09:17:24.000Z,568
2019-05-06T09:37:41.000Z,571
2019-05-06T09:57:58.000Z,574
2019-05-06T10:18:15.000Z,577
2019-05-06T10:38:31.000Z,579
2019-05-06T10:58:48.000Z,581
2019-05-06T11:19:05.000Z,584
2019-05-06T11:39:22.000Z,587
2019-05-06T11:59:39.000Z,587
2019-05-06T12:19:56.000Z,587
2019-05-06T12:40:13.000Z,590
2019-05-06T13:00:30.000Z,591
2019-05-06T13:20:47.000Z,591
2019-05-06T13:41:04.000Z,592
2019-05-06T14:01:20.000Z,594
2019-05-06T14:21:37.000Z,595
2019-05-06T14:41:54.000Z,598
2019-05-06T15:02:11.000Z,597
2019-05-06T15:22:28.000Z,600
2019-05-06T15:42:45.000Z,601
